sensor_id;sensor_type;location;lat;lon;timestamp;P1;durP1;ratioP1;P2;durP2;ratioP2
20695;SDS011;10507;52.754;13.040;2024-03-02T00:01:19;48.40;;;25.80;;
20695;SDS011;10507;52.754;13.040;2024-03-02T00:03:46;47.73;;;24.67;;
20695;SDS011;10507;52.754;13.040;2024-03-02T00:06:12;45.93;;;24.20;;
20695;SDS011;10507;52.754;13.040;2024-03-02T00:08:40;42.73;;;23.10;;
20695;SDS011;10507;52.754;13.040;2024-03-02T00:11:07;44.77;;;23.27;;
20695;SDS011;10507;52.754;13.040;2024-03-02T00:13:36;44.20;;;24.53;;
20695;SDS011;10507;52.754;13.040;2024-03-02T00:16:02;44.13;;;23.70;;
20695;SDS011;10507;52.754;13.040;2024-03-02T00:18:32;44.57;;;23.53;;
20695;SDS011;10507;52.754;13.040;2024-03-02T00:21:00;46.13;;;23.87;;
20695;SDS011;10507;52.754;13.040;2024-03-02T00:23:29;47.57;;;23.87;;
20695;SDS011;10507;52.754;13.040;2024-03-02T00:25:58;43.87;;;22.70;;
20695;SDS011;10507;52.754;13.040;2024-03-02T00:28:27;47.53;;;23.90;;
20695;SDS011;10507;52.754;13.040;2024-03-02T00:30:56;45.33;;;23.40;;
20695;SDS011;10507;52.754;13.040;2024-03-02T00:33:23;45.77;;;24.10;;
20695;SDS011;10507;52.754;13.040;2024-03-02T00:35:53;46.47;;;25.77;;
20695;SDS011;10507;52.754;13.040;2024-03-02T00:38:19;46.93;;;25.20;;
20695;SDS011;10507;52.754;13.040;2024-03-02T00:40:47;45.63;;;25.00;;
20695;SDS011;10507;52.754;13.040;2024-03-02T00:43:24;45.23;;;26.03;;
20695;SDS011;10507;52.754;13.040;2024-03-02T00:46:12;51.40;;;25.60;;
20695;SDS011;10507;52.754;13.040;2024-03-02T00:48:44;50.60;;;25.70;;
20695;SDS011;10507;52.754;13.040;2024-03-02T00:51:14;46.20;;;25.40;;
20695;SDS011;10507;52.754;13.040;2024-03-02T00:53:41;48.60;;;24.23;;
20695;SDS011;10507;52.754;13.040;2024-03-02T00:56:09;44.50;;;24.33;;
20695;SDS011;10507;52.754;13.040;2024-03-02T00:58:38;44.43;;;24.93;;
20695;SDS011;10507;52.754;13.040;2024-03-02T01:01:05;50.80;;;28.43;;
20695;SDS011;10507;52.754;13.040;2024-03-02T01:03:32;53.57;;;27.57;;
20695;SDS011;10507;52.754;13.040;2024-03-02T01:05:59;53.77;;;30.40;;
20695;SDS011;10507;52.754;13.040;2024-03-02T01:08:26;63.07;;;31.07;;
20695;SDS011;10507;52.754;13.040;2024-03-02T01:10:52;63.63;;;31.03;;
20695;SDS011;10507;52.754;13.040;2024-03-02T01:13:19;56.63;;;31.73;;
20695;SDS011;10507;52.754;13.040;2024-03-02T01:15:48;49.97;;;26.37;;
20695;SDS011;10507;52.754;13.040;2024-03-02T01:18:15;52.97;;;28.03;;
20695;SDS011;10507;52.754;13.040;2024-03-02T01:20:42;55.80;;;29.27;;
20695;SDS011;10507;52.754;13.040;2024-03-02T01:23:08;50.50;;;28.53;;
20695;SDS011;10507;52.754;13.040;2024-03-02T01:25:35;58.60;;;30.50;;
20695;SDS011;10507;52.754;13.040;2024-03-02T01:28:02;59.00;;;30.97;;
20695;SDS011;10507;52.754;13.040;2024-03-02T01:30:29;52.83;;;28.70;;
20695;SDS011;10507;52.754;13.040;2024-03-02T01:32:57;53.33;;;28.03;;
20695;SDS011;10507;52.754;13.040;2024-03-02T01:35:24;53.33;;;28.73;;
20695;SDS011;10507;52.754;13.040;2024-03-02T01:37:51;53.20;;;28.60;;
20695;SDS011;10507;52.754;13.040;2024-03-02T01:40:18;48.60;;;25.93;;
20695;SDS011;10507;52.754;13.040;2024-03-02T01:42:45;46.10;;;25.17;;
20695;SDS011;10507;52.754;13.040;2024-03-02T01:45:12;59.43;;;29.23;;
20695;SDS011;10507;52.754;13.040;2024-03-02T01:47:38;51.20;;;28.00;;
20695;SDS011;10507;52.754;13.040;2024-03-02T01:50:07;51.97;;;28.53;;
20695;SDS011;10507;52.754;13.040;2024-03-02T01:52:35;53.73;;;28.47;;
20695;SDS011;10507;52.754;13.040;2024-03-02T01:55:01;51.50;;;27.73;;
20695;SDS011;10507;52.754;13.040;2024-03-02T01:57:28;53.27;;;29.53;;
20695;SDS011;10507;52.754;13.040;2024-03-02T01:59:56;51.43;;;27.40;;
20695;SDS011;10507;52.754;13.040;2024-03-02T02:02:22;49.47;;;26.50;;
20695;SDS011;10507;52.754;13.040;2024-03-02T02:04:49;51.23;;;27.07;;
20695;SDS011;10507;52.754;13.040;2024-03-02T02:07:17;59.20;;;31.83;;
20695;SDS011;10507;52.754;13.040;2024-03-02T02:09:44;51.40;;;29.07;;
20695;SDS011;10507;52.754;13.040;2024-03-02T02:12:11;52.40;;;27.70;;
20695;SDS011;10507;52.754;13.040;2024-03-02T02:14:37;56.97;;;29.73;;
20695;SDS011;10507;52.754;13.040;2024-03-02T02:17:05;58.00;;;31.20;;
20695;SDS011;10507;52.754;13.040;2024-03-02T02:19:32;62.13;;;31.90;;
20695;SDS011;10507;52.754;13.040;2024-03-02T02:22:00;54.53;;;29.27;;
20695;SDS011;10507;52.754;13.040;2024-03-02T02:24:26;47.33;;;27.10;;
20695;SDS011;10507;52.754;13.040;2024-03-02T02:26:53;53.10;;;27.23;;
20695;SDS011;10507;52.754;13.040;2024-03-02T02:29:19;54.60;;;30.67;;
20695;SDS011;10507;52.754;13.040;2024-03-02T02:31:46;51.10;;;27.63;;
20695;SDS011;10507;52.754;13.040;2024-03-02T02:34:13;51.37;;;27.80;;
20695;SDS011;10507;52.754;13.040;2024-03-02T02:36:40;54.30;;;29.07;;
20695;SDS011;10507;52.754;13.040;2024-03-02T02:39:11;59.07;;;32.27;;
20695;SDS011;10507;52.754;13.040;2024-03-02T02:41:41;59.97;;;30.23;;
20695;SDS011;10507;52.754;13.040;2024-03-02T02:44:08;63.87;;;32.80;;
20695;SDS011;10507;52.754;13.040;2024-03-02T02:46:36;66.03;;;32.43;;
20695;SDS011;10507;52.754;13.040;2024-03-02T02:49:03;65.83;;;33.97;;
20695;SDS011;10507;52.754;13.040;2024-03-02T02:51:30;65.90;;;35.20;;
20695;SDS011;10507;52.754;13.040;2024-03-02T02:53:56;61.90;;;32.07;;
20695;SDS011;10507;52.754;13.040;2024-03-02T02:56:25;66.33;;;34.73;;
20695;SDS011;10507;52.754;13.040;2024-03-02T02:58:51;63.83;;;33.07;;
20695;SDS011;10507;52.754;13.040;2024-03-02T03:01:18;58.40;;;31.80;;
20695;SDS011;10507;52.754;13.040;2024-03-02T03:03:45;62.03;;;33.70;;
20695;SDS011;10507;52.754;13.040;2024-03-02T03:06:12;58.03;;;30.97;;
20695;SDS011;10507;52.754;13.040;2024-03-02T03:08:38;61.83;;;32.30;;
20695;SDS011;10507;52.754;13.040;2024-03-02T03:11:05;54.57;;;32.23;;
20695;SDS011;10507;52.754;13.040;2024-03-02T03:13:33;60.57;;;32.07;;
20695;SDS011;10507;52.754;13.040;2024-03-02T03:16:00;61.97;;;32.63;;
20695;SDS011;10507;52.754;13.040;2024-03-02T03:18:27;61.07;;;33.20;;
20695;SDS011;10507;52.754;13.040;2024-03-02T03:20:53;60.10;;;31.80;;
20695;SDS011;10507;52.754;13.040;2024-03-02T03:23:20;58.77;;;32.23;;
20695;SDS011;10507;52.754;13.040;2024-03-02T03:25:47;57.10;;;32.97;;
20695;SDS011;10507;52.754;13.040;2024-03-02T03:28:13;62.60;;;33.10;;
20695;SDS011;10507;52.754;13.040;2024-03-02T03:30:41;55.57;;;30.47;;
20695;SDS011;10507;52.754;13.040;2024-03-02T03:33:08;55.03;;;30.63;;
20695;SDS011;10507;52.754;13.040;2024-03-02T03:35:34;62.77;;;34.07;;
20695;SDS011;10507;52.754;13.040;2024-03-02T03:38:02;65.60;;;33.30;;
20695;SDS011;10507;52.754;13.040;2024-03-02T03:40:29;63.20;;;34.13;;
20695;SDS011;10507;52.754;13.040;2024-03-02T03:42:56;64.13;;;33.80;;
20695;SDS011;10507;52.754;13.040;2024-03-02T03:45:23;61.80;;;34.43;;
20695;SDS011;10507;52.754;13.040;2024-03-02T03:47:52;65.50;;;34.80;;
20695;SDS011;10507;52.754;13.040;2024-03-02T03:50:19;69.73;;;36.37;;
20695;SDS011;10507;52.754;13.040;2024-03-02T03:52:46;71.13;;;38.07;;
20695;SDS011;10507;52.754;13.040;2024-03-02T03:55:12;67.80;;;37.30;;
20695;SDS011;10507;52.754;13.040;2024-03-02T03:57:39;73.57;;;37.37;;
20695;SDS011;10507;52.754;13.040;2024-03-02T04:00:06;68.67;;;37.03;;
20695;SDS011;10507;52.754;13.040;2024-03-02T04:02:35;73.00;;;36.90;;
20695;SDS011;10507;52.754;13.040;2024-03-02T04:05:03;66.60;;;37.30;;
20695;SDS011;10507;52.754;13.040;2024-03-02T04:07:33;69.43;;;37.23;;
20695;SDS011;10507;52.754;13.040;2024-03-02T04:10:05;67.00;;;37.77;;
20695;SDS011;10507;52.754;13.040;2024-03-02T04:12:34;71.77;;;38.37;;
20695;SDS011;10507;52.754;13.040;2024-03-02T04:15:00;68.93;;;38.07;;
20695;SDS011;10507;52.754;13.040;2024-03-02T04:17:29;72.23;;;37.37;;
20695;SDS011;10507;52.754;13.040;2024-03-02T04:19:57;73.37;;;37.20;;
20695;SDS011;10507;52.754;13.040;2024-03-02T04:24:53;70.60;;;38.23;;
20695;SDS011;10507;52.754;13.040;2024-03-02T04:27:20;70.13;;;37.70;;
20695;SDS011;10507;52.754;13.040;2024-03-02T04:29:47;66.67;;;37.87;;
20695;SDS011;10507;52.754;13.040;2024-03-02T04:32:13;70.43;;;39.37;;
20695;SDS011;10507;52.754;13.040;2024-03-02T04:34:40;67.93;;;37.17;;
20695;SDS011;10507;52.754;13.040;2024-03-02T04:37:07;72.83;;;37.63;;
20695;SDS011;10507;52.754;13.040;2024-03-02T04:39:36;68.70;;;39.07;;
20695;SDS011;10507;52.754;13.040;2024-03-02T04:42:02;70.67;;;38.53;;
20695;SDS011;10507;52.754;13.040;2024-03-02T04:44:29;72.73;;;37.73;;
20695;SDS011;10507;52.754;13.040;2024-03-02T04:46:56;74.33;;;38.20;;
20695;SDS011;10507;52.754;13.040;2024-03-02T04:49:22;79.07;;;39.40;;
20695;SDS011;10507;52.754;13.040;2024-03-02T04:51:49;73.20;;;40.40;;
20695;SDS011;10507;52.754;13.040;2024-03-02T04:54:16;76.13;;;41.17;;
20695;SDS011;10507;52.754;13.040;2024-03-02T04:56:44;69.17;;;37.73;;
20695;SDS011;10507;52.754;13.040;2024-03-02T04:59:14;72.37;;;38.77;;
20695;SDS011;10507;52.754;13.040;2024-03-02T05:01:42;71.40;;;38.60;;
20695;SDS011;10507;52.754;13.040;2024-03-02T05:04:08;73.87;;;39.03;;
20695;SDS011;10507;52.754;13.040;2024-03-02T05:06:36;74.47;;;39.80;;
20695;SDS011;10507;52.754;13.040;2024-03-02T05:09:04;73.50;;;39.53;;
20695;SDS011;10507;52.754;13.040;2024-03-02T05:11:31;74.40;;;39.93;;
20695;SDS011;10507;52.754;13.040;2024-03-02T05:14:19;79.40;;;41.00;;
20695;SDS011;10507;52.754;13.040;2024-03-02T05:16:45;79.87;;;41.60;;
20695;SDS011;10507;52.754;13.040;2024-03-02T05:19:12;74.07;;;39.03;;
20695;SDS011;10507;52.754;13.040;2024-03-02T05:21:38;79.17;;;40.60;;
20695;SDS011;10507;52.754;13.040;2024-03-02T05:24:05;69.50;;;39.47;;
20695;SDS011;10507;52.754;13.040;2024-03-02T05:26:32;75.20;;;38.70;;
20695;SDS011;10507;52.754;13.040;2024-03-02T05:28:59;69.93;;;37.50;;
20695;SDS011;10507;52.754;13.040;2024-03-02T05:31:27;73.30;;;39.90;;
20695;SDS011;10507;52.754;13.040;2024-03-02T05:33:53;69.73;;;38.23;;
20695;SDS011;10507;52.754;13.040;2024-03-02T05:36:20;78.60;;;39.40;;
20695;SDS011;10507;52.754;13.040;2024-03-02T05:38:46;75.23;;;39.80;;
20695;SDS011;10507;52.754;13.040;2024-03-02T05:41:13;75.57;;;39.20;;
20695;SDS011;10507;52.754;13.040;2024-03-02T05:43:40;87.53;;;41.67;;
20695;SDS011;10507;52.754;13.040;2024-03-02T05:46:06;75.03;;;41.60;;
20695;SDS011;10507;52.754;13.040;2024-03-02T05:48:34;81.10;;;40.63;;
20695;SDS011;10507;52.754;13.040;2024-03-02T05:51:01;80.87;;;41.63;;
20695;SDS011;10507;52.754;13.040;2024-03-02T05:53:27;76.37;;;41.67;;
20695;SDS011;10507;52.754;13.040;2024-03-02T05:55:54;78.30;;;41.53;;
20695;SDS011;10507;52.754;13.040;2024-03-02T05:58:21;84.03;;;42.67;;
20695;SDS011;10507;52.754;13.040;2024-03-02T06:00:58;79.57;;;40.50;;
20695;SDS011;10507;52.754;13.040;2024-03-02T06:03:25;78.63;;;41.60;;
20695;SDS011;10507;52.754;13.040;2024-03-02T06:05:54;74.53;;;42.67;;
20695;SDS011;10507;52.754;13.040;2024-03-02T06:08:21;77.03;;;40.17;;
20695;SDS011;10507;52.754;13.040;2024-03-02T06:10:47;81.57;;;42.90;;
20695;SDS011;10507;52.754;13.040;2024-03-02T06:13:14;81.80;;;41.13;;
20695;SDS011;10507;52.754;13.040;2024-03-02T06:15:41;77.00;;;39.23;;
20695;SDS011;10507;52.754;13.040;2024-03-02T06:18:07;74.67;;;40.80;;
20695;SDS011;10507;52.754;13.040;2024-03-02T06:20:34;75.37;;;39.20;;
20695;SDS011;10507;52.754;13.040;2024-03-02T06:23:03;70.97;;;38.83;;
20695;SDS011;10507;52.754;13.040;2024-03-02T06:25:30;79.23;;;41.50;;
20695;SDS011;10507;52.754;13.040;2024-03-02T06:27:57;79.87;;;41.60;;
20695;SDS011;10507;52.754;13.040;2024-03-02T06:30:23;83.67;;;41.63;;
20695;SDS011;10507;52.754;13.040;2024-03-02T06:32:50;86.33;;;41.93;;
20695;SDS011;10507;52.754;13.040;2024-03-02T06:35:17;85.23;;;42.30;;
20695;SDS011;10507;52.754;13.040;2024-03-02T06:37:44;88.10;;;43.47;;
20695;SDS011;10507;52.754;13.040;2024-03-02T06:40:11;84.50;;;43.07;;
20695;SDS011;10507;52.754;13.040;2024-03-02T06:42:38;86.97;;;43.47;;
20695;SDS011;10507;52.754;13.040;2024-03-02T06:45:05;86.27;;;44.13;;
20695;SDS011;10507;52.754;13.040;2024-03-02T06:47:32;86.73;;;43.87;;
20695;SDS011;10507;52.754;13.040;2024-03-02T06:49:59;80.13;;;42.63;;
20695;SDS011;10507;52.754;13.040;2024-03-02T06:52:25;89.97;;;45.13;;
20695;SDS011;10507;52.754;13.040;2024-03-02T06:54:52;87.13;;;44.73;;
20695;SDS011;10507;52.754;13.040;2024-03-02T06:57:20;88.50;;;45.10;;
20695;SDS011;10507;52.754;13.040;2024-03-02T06:59:46;83.70;;;43.33;;
20695;SDS011;10507;52.754;13.040;2024-03-02T07:02:15;85.73;;;43.23;;
20695;SDS011;10507;52.754;13.040;2024-03-02T07:04:41;85.93;;;43.37;;
20695;SDS011;10507;52.754;13.040;2024-03-02T07:07:09;91.43;;;44.27;;
20695;SDS011;10507;52.754;13.040;2024-03-02T07:09:36;78.80;;;40.27;;
20695;SDS011;10507;52.754;13.040;2024-03-02T07:12:03;76.75;;;39.90;;
20695;SDS011;10507;52.754;13.040;2024-03-02T07:14:31;80.03;;;40.87;;
20695;SDS011;10507;52.754;13.040;2024-03-02T07:17:11;77.30;;;40.47;;
20695;SDS011;10507;52.754;13.040;2024-03-02T07:19:38;80.03;;;41.72;;
20695;SDS011;10507;52.754;13.040;2024-03-02T07:22:06;73.23;;;40.57;;
20695;SDS011;10507;52.754;13.040;2024-03-02T07:24:38;72.30;;;40.53;;
20695;SDS011;10507;52.754;13.040;2024-03-02T07:27:06;66.25;;;37.33;;
20695;SDS011;10507;52.754;13.040;2024-03-02T07:29:34;62.53;;;36.08;;
20695;SDS011;10507;52.754;13.040;2024-03-02T07:32:01;57.13;;;32.75;;
20695;SDS011;10507;52.754;13.040;2024-03-02T07:34:27;55.90;;;32.25;;
20695;SDS011;10507;52.754;13.040;2024-03-02T07:36:54;57.53;;;34.15;;
20695;SDS011;10507;52.754;13.040;2024-03-02T07:39:21;57.10;;;33.35;;
20695;SDS011;10507;52.754;13.040;2024-03-02T07:41:48;60.58;;;34.03;;
20695;SDS011;10507;52.754;13.040;2024-03-02T07:44:15;63.00;;;35.28;;
20695;SDS011;10507;52.754;13.040;2024-03-02T07:46:45;64.63;;;34.65;;
20695;SDS011;10507;52.754;13.040;2024-03-02T07:49:14;60.90;;;34.53;;
20695;SDS011;10507;52.754;13.040;2024-03-02T07:51:41;63.22;;;34.22;;
20695;SDS011;10507;52.754;13.040;2024-03-02T07:54:08;64.85;;;34.88;;
20695;SDS011;10507;52.754;13.040;2024-03-02T07:56:35;67.87;;;36.27;;
20695;SDS011;10507;52.754;13.040;2024-03-02T07:59:01;70.97;;;36.97;;
20695;SDS011;10507;52.754;13.040;2024-03-02T08:01:28;61.77;;;35.20;;
20695;SDS011;10507;52.754;13.040;2024-03-02T08:03:57;67.53;;;36.27;;
20695;SDS011;10507;52.754;13.040;2024-03-02T08:06:24;62.35;;;35.10;;
20695;SDS011;10507;52.754;13.040;2024-03-02T08:08:52;63.10;;;34.88;;
20695;SDS011;10507;52.754;13.040;2024-03-02T08:11:19;62.77;;;34.77;;
20695;SDS011;10507;52.754;13.040;2024-03-02T08:13:46;63.35;;;33.80;;
20695;SDS011;10507;52.754;13.040;2024-03-02T08:16:13;61.30;;;33.40;;
20695;SDS011;10507;52.754;13.040;2024-03-02T08:18:40;60.42;;;34.08;;
20695;SDS011;10507;52.754;13.040;2024-03-02T08:21:08;56.97;;;30.57;;
20695;SDS011;10507;52.754;13.040;2024-03-02T08:23:35;59.63;;;32.35;;
20695;SDS011;10507;52.754;13.040;2024-03-02T08:26:02;61.75;;;32.50;;
20695;SDS011;10507;52.754;13.040;2024-03-02T08:28:29;56.65;;;31.38;;
20695;SDS011;10507;52.754;13.040;2024-03-02T08:30:56;58.90;;;31.88;;
20695;SDS011;10507;52.754;13.040;2024-03-02T08:33:22;60.38;;;32.80;;
20695;SDS011;10507;52.754;13.040;2024-03-02T08:35:49;60.13;;;33.75;;
20695;SDS011;10507;52.754;13.040;2024-03-02T08:38:17;55.53;;;33.30;;
20695;SDS011;10507;52.754;13.040;2024-03-02T08:40:44;58.47;;;32.42;;
20695;SDS011;10507;52.754;13.040;2024-03-02T08:43:11;55.83;;;32.25;;
20695;SDS011;10507;52.754;13.040;2024-03-02T08:45:38;56.10;;;33.15;;
20695;SDS011;10507;52.754;13.040;2024-03-02T08:48:06;57.08;;;32.65;;
20695;SDS011;10507;52.754;13.040;2024-03-02T08:50:33;59.30;;;34.25;;
20695;SDS011;10507;52.754;13.040;2024-03-02T08:53:00;59.88;;;33.63;;
20695;SDS011;10507;52.754;13.040;2024-03-02T08:55:28;64.00;;;35.20;;
20695;SDS011;10507;52.754;13.040;2024-03-02T08:57:54;60.00;;;33.00;;
20695;SDS011;10507;52.754;13.040;2024-03-02T09:00:21;55.55;;;32.47;;
20695;SDS011;10507;52.754;13.040;2024-03-02T09:02:48;57.58;;;33.63;;
20695;SDS011;10507;52.754;13.040;2024-03-02T09:05:15;64.40;;;33.85;;
20695;SDS011;10507;52.754;13.040;2024-03-02T09:07:42;55.95;;;30.80;;
20695;SDS011;10507;52.754;13.040;2024-03-02T09:10:09;58.72;;;32.95;;
20695;SDS011;10507;52.754;13.040;2024-03-02T09:12:37;59.50;;;32.95;;
20695;SDS011;10507;52.754;13.040;2024-03-02T09:15:05;63.55;;;33.90;;
20695;SDS011;10507;52.754;13.040;2024-03-02T09:17:32;59.47;;;32.58;;
20695;SDS011;10507;52.754;13.040;2024-03-02T09:19:59;57.07;;;32.67;;
20695;SDS011;10507;52.754;13.040;2024-03-02T09:22:25;55.43;;;32.17;;
20695;SDS011;10507;52.754;13.040;2024-03-02T09:24:52;62.75;;;32.10;;
20695;SDS011;10507;52.754;13.040;2024-03-02T09:27:19;58.33;;;31.88;;
20695;SDS011;10507;52.754;13.040;2024-03-02T09:29:47;61.90;;;35.22;;
20695;SDS011;10507;52.754;13.040;2024-03-02T09:32:13;64.00;;;33.50;;
20695;SDS011;10507;52.754;13.040;2024-03-02T09:34:40;58.43;;;34.27;;
20695;SDS011;10507;52.754;13.040;2024-03-02T09:37:08;58.73;;;33.83;;
20695;SDS011;10507;52.754;13.040;2024-03-02T09:39:35;62.65;;;35.40;;
20695;SDS011;10507;52.754;13.040;2024-03-02T09:42:01;62.87;;;34.23;;
20695;SDS011;10507;52.754;13.040;2024-03-02T09:44:33;57.33;;;32.30;;
20695;SDS011;10507;52.754;13.040;2024-03-02T09:47:01;61.88;;;34.63;;
20695;SDS011;10507;52.754;13.040;2024-03-02T09:49:28;61.50;;;34.47;;
20695;SDS011;10507;52.754;13.040;2024-03-02T09:51:54;61.03;;;33.60;;
20695;SDS011;10507;52.754;13.040;2024-03-02T09:54:21;60.37;;;34.53;;
20695;SDS011;10507;52.754;13.040;2024-03-02T09:56:49;58.00;;;33.93;;
20695;SDS011;10507;52.754;13.040;2024-03-02T09:59:16;66.93;;;35.95;;
20695;SDS011;10507;52.754;13.040;2024-03-02T10:01:55;61.97;;;35.35;;
20695;SDS011;10507;52.754;13.040;2024-03-02T10:04:24;60.53;;;35.38;;
20695;SDS011;10507;52.754;13.040;2024-03-02T10:06:51;58.83;;;35.33;;
20695;SDS011;10507;52.754;13.040;2024-03-02T10:09:36;59.33;;;34.17;;
20695;SDS011;10507;52.754;13.040;2024-03-02T10:12:03;58.63;;;32.53;;
20695;SDS011;10507;52.754;13.040;2024-03-02T10:14:30;57.30;;;32.95;;
20695;SDS011;10507;52.754;13.040;2024-03-02T10:17:01;60.50;;;33.88;;
20695;SDS011;10507;52.754;13.040;2024-03-02T10:19:31;60.17;;;34.10;;
20695;SDS011;10507;52.754;13.040;2024-03-02T10:21:59;57.15;;;32.47;;
20695;SDS011;10507;52.754;13.040;2024-03-02T10:24:28;56.60;;;33.70;;
20695;SDS011;10507;52.754;13.040;2024-03-02T10:27:02;59.08;;;33.05;;
20695;SDS011;10507;52.754;13.040;2024-03-02T10:29:34;56.55;;;33.03;;
20695;SDS011;10507;52.754;13.040;2024-03-02T10:32:03;50.13;;;29.13;;
20695;SDS011;10507;52.754;13.040;2024-03-02T10:34:33;52.90;;;29.10;;
20695;SDS011;10507;52.754;13.040;2024-03-02T10:37:01;45.75;;;27.38;;
20695;SDS011;10507;52.754;13.040;2024-03-02T10:39:28;48.13;;;27.02;;
20695;SDS011;10507;52.754;13.040;2024-03-02T10:41:56;50.17;;;28.27;;
20695;SDS011;10507;52.754;13.040;2024-03-02T10:44:24;48.47;;;28.00;;
20695;SDS011;10507;52.754;13.040;2024-03-02T10:46:52;52.90;;;29.50;;
20695;SDS011;10507;52.754;13.040;2024-03-02T10:49:22;46.67;;;27.95;;
20695;SDS011;10507;52.754;13.040;2024-03-02T10:51:51;48.53;;;26.98;;
20695;SDS011;10507;52.754;13.040;2024-03-02T10:54:18;45.88;;;26.77;;
20695;SDS011;10507;52.754;13.040;2024-03-02T10:56:51;44.72;;;27.95;;
20695;SDS011;10507;52.754;13.040;2024-03-02T10:59:22;45.63;;;26.60;;
20695;SDS011;10507;52.754;13.040;2024-03-02T11:01:55;44.30;;;26.90;;
20695;SDS011;10507;52.754;13.040;2024-03-02T11:04:23;44.40;;;24.73;;
20695;SDS011;10507;52.754;13.040;2024-03-02T11:06:54;41.22;;;25.75;;
20695;SDS011;10507;52.754;13.040;2024-03-02T11:09:27;43.80;;;26.75;;
20695;SDS011;10507;52.754;13.040;2024-03-02T11:11:56;43.35;;;26.55;;
20695;SDS011;10507;52.754;13.040;2024-03-02T11:14:29;48.70;;;27.63;;
20695;SDS011;10507;52.754;13.040;2024-03-02T11:16:58;41.75;;;26.40;;
20695;SDS011;10507;52.754;13.040;2024-03-02T11:19:26;42.33;;;26.63;;
20695;SDS011;10507;52.754;13.040;2024-03-02T11:21:55;43.17;;;26.30;;
20695;SDS011;10507;52.754;13.040;2024-03-02T11:24:29;42.70;;;24.73;;
20695;SDS011;10507;52.754;13.040;2024-03-02T11:26:58;39.47;;;23.92;;
20695;SDS011;10507;52.754;13.040;2024-03-02T11:29:44;41.95;;;26.13;;
20695;SDS011;10507;52.754;13.040;2024-03-02T11:32:16;41.67;;;24.65;;
20695;SDS011;10507;52.754;13.040;2024-03-02T11:34:44;38.58;;;22.88;;
20695;SDS011;10507;52.754;13.040;2024-03-02T11:37:14;37.65;;;24.25;;
20695;SDS011;10507;52.754;13.040;2024-03-02T11:39:42;41.05;;;24.60;;
20695;SDS011;10507;52.754;13.040;2024-03-02T11:42:10;39.70;;;23.83;;
20695;SDS011;10507;52.754;13.040;2024-03-02T11:44:39;37.78;;;22.27;;
20695;SDS011;10507;52.754;13.040;2024-03-02T11:47:07;36.65;;;23.48;;
20695;SDS011;10507;52.754;13.040;2024-03-02T11:49:37;37.28;;;21.88;;
20695;SDS011;10507;52.754;13.040;2024-03-02T11:52:05;35.50;;;22.00;;
20695;SDS011;10507;52.754;13.040;2024-03-02T11:54:34;35.08;;;21.70;;
20695;SDS011;10507;52.754;13.040;2024-03-02T11:57:04;32.35;;;20.70;;
20695;SDS011;10507;52.754;13.040;2024-03-02T11:59:32;33.03;;;20.58;;
20695;SDS011;10507;52.754;13.040;2024-03-02T12:01:59;33.85;;;19.63;;
20695;SDS011;10507;52.754;13.040;2024-03-02T12:04:27;29.55;;;18.35;;
20695;SDS011;10507;52.754;13.040;2024-03-02T12:06:56;31.15;;;19.63;;
20695;SDS011;10507;52.754;13.040;2024-03-02T12:09:25;31.30;;;19.23;;
20695;SDS011;10507;52.754;13.040;2024-03-02T12:12:06;32.22;;;20.05;;
20695;SDS011;10507;52.754;13.040;2024-03-02T12:14:34;31.95;;;19.55;;
20695;SDS011;10507;52.754;13.040;2024-03-02T12:17:02;31.08;;;19.23;;
20695;SDS011;10507;52.754;13.040;2024-03-02T12:19:30;30.50;;;19.13;;
20695;SDS011;10507;52.754;13.040;2024-03-02T12:21:59;35.38;;;20.38;;
20695;SDS011;10507;52.754;13.040;2024-03-02T12:24:26;32.38;;;19.48;;
20695;SDS011;10507;52.754;13.040;2024-03-02T12:26:54;29.80;;;19.15;;
20695;SDS011;10507;52.754;13.040;2024-03-02T12:29:22;32.05;;;19.73;;
20695;SDS011;10507;52.754;13.040;2024-03-02T12:31:50;26.85;;;17.77;;
20695;SDS011;10507;52.754;13.040;2024-03-02T12:34:18;27.38;;;17.30;;
20695;SDS011;10507;52.754;13.040;2024-03-02T12:36:45;27.65;;;17.55;;
20695;SDS011;10507;52.754;13.040;2024-03-02T12:39:15;26.27;;;16.88;;
20695;SDS011;10507;52.754;13.040;2024-03-02T12:41:42;29.02;;;17.95;;
20695;SDS011;10507;52.754;13.040;2024-03-02T12:44:09;27.33;;;17.73;;
20695;SDS011;10507;52.754;13.040;2024-03-02T12:46:37;31.13;;;17.80;;
20695;SDS011;10507;52.754;13.040;2024-03-02T12:49:08;28.52;;;17.75;;
20695;SDS011;10507;52.754;13.040;2024-03-02T12:51:39;28.33;;;16.77;;
20695;SDS011;10507;52.754;13.040;2024-03-02T12:54:06;30.48;;;17.55;;
20695;SDS011;10507;52.754;13.040;2024-03-02T12:56:34;25.40;;;15.95;;
20695;SDS011;10507;52.754;13.040;2024-03-02T12:59:01;25.88;;;15.98;;
20695;SDS011;10507;52.754;13.040;2024-03-02T13:01:28;27.08;;;16.65;;
20695;SDS011;10507;52.754;13.040;2024-03-02T13:03:57;27.88;;;17.33;;
20695;SDS011;10507;52.754;13.040;2024-03-02T13:06:25;27.88;;;17.17;;
20695;SDS011;10507;52.754;13.040;2024-03-02T13:08:53;24.95;;;16.23;;
20695;SDS011;10507;52.754;13.040;2024-03-02T13:11:21;24.63;;;15.20;;
20695;SDS011;10507;52.754;13.040;2024-03-02T13:13:49;25.27;;;16.63;;
20695;SDS011;10507;52.754;13.040;2024-03-02T13:16:16;26.42;;;16.85;;
20695;SDS011;10507;52.754;13.040;2024-03-02T13:18:45;21.55;;;14.52;;
20695;SDS011;10507;52.754;13.040;2024-03-02T13:21:13;22.77;;;15.07;;
20695;SDS011;10507;52.754;13.040;2024-03-02T13:23:39;22.30;;;13.52;;
20695;SDS011;10507;52.754;13.040;2024-03-02T13:26:06;20.58;;;14.07;;
20695;SDS011;10507;52.754;13.040;2024-03-02T13:28:35;21.00;;;13.27;;
20695;SDS011;10507;52.754;13.040;2024-03-02T13:31:02;20.80;;;13.77;;
20695;SDS011;10507;52.754;13.040;2024-03-02T13:33:29;20.33;;;12.75;;
20695;SDS011;10507;52.754;13.040;2024-03-02T13:35:58;20.30;;;12.60;;
20695;SDS011;10507;52.754;13.040;2024-03-02T13:38:26;18.92;;;12.35;;
20695;SDS011;10507;52.754;13.040;2024-03-02T13:40:52;18.75;;;13.35;;
20695;SDS011;10507;52.754;13.040;2024-03-02T13:43:19;23.33;;;14.00;;
20695;SDS011;10507;52.754;13.040;2024-03-02T13:45:46;23.90;;;14.43;;
20695;SDS011;10507;52.754;13.040;2024-03-02T13:48:12;25.15;;;14.25;;
20695;SDS011;10507;52.754;13.040;2024-03-02T13:50:39;22.65;;;14.80;;
20695;SDS011;10507;52.754;13.040;2024-03-02T13:53:06;21.13;;;14.02;;
20695;SDS011;10507;52.754;13.040;2024-03-02T13:55:35;22.73;;;14.18;;
20695;SDS011;10507;52.754;13.040;2024-03-02T13:58:02;25.27;;;14.45;;
20695;SDS011;10507;52.754;13.040;2024-03-02T14:00:29;18.45;;;12.13;;
20695;SDS011;10507;52.754;13.040;2024-03-02T14:02:56;20.42;;;12.75;;
20695;SDS011;10507;52.754;13.040;2024-03-02T14:05:22;21.17;;;13.15;;
20695;SDS011;10507;52.754;13.040;2024-03-02T14:07:49;19.65;;;13.10;;
20695;SDS011;10507;52.754;13.040;2024-03-02T14:10:16;17.55;;;11.43;;
20695;SDS011;10507;52.754;13.040;2024-03-02T14:12:48;18.60;;;11.50;;
20695;SDS011;10507;52.754;13.040;2024-03-02T14:15:15;19.55;;;11.80;;